Peterson, Minnesota
Current Conditions -  °F | °C
As of 3:55 AM on Monday 22 Dec 2014 (Local Time) from KFKA Reporting Station
Haze Haze  
Wind Chill: 25°   Ceiling: 400
Heat Index: 34°   Visibility: 2.5mi
Dew Point: 33°   Wind: 13mph
Humidity: 97%   Direction: 160°SSE
Pressure: 29.74"   Gusts: 21mph
Location:  43.79°N, 91.83°W
Report Text: KFKA 220955Z AUTO 16011G18KT 2 1/2SM BR OVC004 01/01 A2974 RMK AO2 T00120007
Loading
Personal Weather Stations






























Interactive Weather Map New forecast layout! Learn more

10-Day Weather Forecast

Advertisements
Track Severe Weather on mobile